sensor_id;sensor_type;location;lat;lon;timestamp;temperature;humidity
53752;DHT22;41095;53.090;6.692;2023-02-28T00:00:49;5.20;99.90
53752;DHT22;41095;53.090;6.692;2023-02-28T00:03:15;4.80;99.90
53752;DHT22;41095;53.090;6.692;2023-02-28T00:05:41;4.80;99.90
53752;DHT22;41095;53.090;6.692;2023-02-28T00:08:07;4.70;99.90
53752;DHT22;41095;53.090;6.692;2023-02-28T00:10:33;4.60;99.90
53752;DHT22;41095;53.090;6.692;2023-02-28T00:13:03;4.60;99.90
53752;DHT22;41095;53.090;6.692;2023-02-28T00:15:30;4.60;99.90
53752;DHT22;41095;53.090;6.692;2023-02-28T00:17:55;4.60;99.90
53752;DHT22;41095;53.090;6.692;2023-02-28T00:20:21;4.50;99.90
53752;DHT22;41095;53.090;6.692;2023-02-28T00:22:49;4.50;99.90
53752;DHT22;41095;53.090;6.692;2023-02-28T00:25:19;4.40;99.90
53752;DHT22;41095;53.090;6.692;2023-02-28T00:27:46;4.50;99.90
53752;DHT22;41095;53.090;6.692;2023-02-28T00:30:14;4.50;99.90
53752;DHT22;41095;53.090;6.692;2023-02-28T00:32:40;4.60;99.90
53752;DHT22;41095;53.090;6.692;2023-02-28T00:35:07;4.50;99.90
53752;DHT22;41095;53.090;6.692;2023-02-28T00:37:33;4.50;99.90
53752;DHT22;41095;53.090;6.692;2023-02-28T00:39:59;4.50;99.90
53752;DHT22;41095;53.090;6.692;2023-02-28T00:42:25;4.50;99.90
53752;DHT22;41095;53.090;6.692;2023-02-28T00:44:51;4.50;99.90
53752;DHT22;41095;53.090;6.692;2023-02-28T00:47:16;4.50;99.90
53752;DHT22;41095;53.090;6.692;2023-02-28T00:49:42;4.60;99.90
53752;DHT22;41095;53.090;6.692;2023-02-28T00:52:08;4.60;99.90
53752;DHT22;41095;53.090;6.692;2023-02-28T00:54:33;4.60;99.90
53752;DHT22;41095;53.090;6.692;2023-02-28T00:56:59;4.70;99.90
53752;DHT22;41095;53.090;6.692;2023-02-28T00:59:25;4.70;99.90
53752;DHT22;41095;53.090;6.692;2023-02-28T01:01:51;4.80;99.90
53752;DHT22;41095;53.090;6.692;2023-02-28T01:04:17;5.10;99.90
53752;DHT22;41095;53.090;6.692;2023-02-28T01:06:42;4.80;99.90
53752;DHT22;41095;53.090;6.692;2023-02-28T01:09:09;4.90;99.90
53752;DHT22;41095;53.090;6.692;2023-02-28T01:11:34;4.90;99.90
53752;DHT22;41095;53.090;6.692;2023-02-28T01:14:01;4.90;99.90
53752;DHT22;41095;53.090;6.692;2023-02-28T01:16:27;4.90;99.90
53752;DHT22;41095;53.090;6.692;2023-02-28T01:18:53;4.90;99.90
53752;DHT22;41095;53.090;6.692;2023-02-28T01:21:20;4.90;99.90
53752;DHT22;41095;53.090;6.692;2023-02-28T01:23:46;5.00;99.90
53752;DHT22;41095;53.090;6.692;2023-02-28T01:26:23;4.90;99.90
53752;DHT22;41095;53.090;6.692;2023-02-28T01:28:50;4.90;99.90
53752;DHT22;41095;53.090;6.692;2023-02-28T01:31:18;4.80;99.90
53752;DHT22;41095;53.090;6.692;2023-02-28T01:33:44;4.80;99.90
53752;DHT22;41095;53.090;6.692;2023-02-28T01:36:19;4.70;99.90
53752;DHT22;41095;53.090;6.692;2023-02-28T01:38:45;4.70;99.90
53752;DHT22;41095;53.090;6.692;2023-02-28T01:41:26;4.70;99.90
53752;DHT22;41095;53.090;6.692;2023-02-28T01:44:00;4.60;99.90
53752;DHT22;41095;53.090;6.692;2023-02-28T01:46:29;4.70;99.90
53752;DHT22;41095;53.090;6.692;2023-02-28T01:49:13;4.90;99.90
53752;DHT22;41095;53.090;6.692;2023-02-28T01:51:51;4.50;99.90
53752;DHT22;41095;53.090;6.692;2023-02-28T01:54:22;4.50;99.90
53752;DHT22;41095;53.090;6.692;2023-02-28T01:57:14;4.50;99.90
53752;DHT22;41095;53.090;6.692;2023-02-28T02:00:03;4.40;99.90
53752;DHT22;41095;53.090;6.692;2023-02-28T02:02:33;4.40;99.90
53752;DHT22;41095;53.090;6.692;2023-02-28T02:05:04;4.30;99.90
53752;DHT22;41095;53.090;6.692;2023-02-28T02:07:33;4.30;99.90
53752;DHT22;41095;53.090;6.692;2023-02-28T02:10:10;4.40;99.90
53752;DHT22;41095;53.090;6.692;2023-02-28T02:42:31;4.50;99.90
53752;DHT22;41095;53.090;6.692;2023-02-28T02:47:41;4.40;99.90
53752;DHT22;41095;53.090;6.692;2023-02-28T02:50:14;4.40;99.90
53752;DHT22;41095;53.090;6.692;2023-02-28T02:52:44;4.50;99.90
53752;DHT22;41095;53.090;6.692;2023-02-28T02:55:13;4.40;99.90
53752;DHT22;41095;53.090;6.692;2023-02-28T02:57:46;4.40;99.90
53752;DHT22;41095;53.090;6.692;2023-02-28T03:00:15;4.40;99.90
53752;DHT22;41095;53.090;6.692;2023-02-28T03:02:43;4.40;99.90
53752;DHT22;41095;53.090;6.692;2023-02-28T03:08:09;4.40;99.90
53752;DHT22;41095;53.090;6.692;2023-02-28T03:10:46;4.40;99.90
53752;DHT22;41095;53.090;6.692;2023-02-28T03:19:03;4.30;99.90
53752;DHT22;41095;53.090;6.692;2023-02-28T03:21:38;4.40;99.90
53752;DHT22;41095;53.090;6.692;2023-02-28T03:26:58;4.30;99.90
53752;DHT22;41095;53.090;6.692;2023-02-28T03:29:41;4.20;99.90
53752;DHT22;41095;53.090;6.692;2023-02-28T03:32:28;4.20;99.90
53752;DHT22;41095;53.090;6.692;2023-02-28T03:35:05;4.10;99.90
53752;DHT22;41095;53.090;6.692;2023-02-28T03:37:35;4.10;99.90
53752;DHT22;41095;53.090;6.692;2023-02-28T03:40:24;4.10;99.90
53752;DHT22;41095;53.090;6.692;2023-02-28T03:42:57;4.10;99.90
53752;DHT22;41095;53.090;6.692;2023-02-28T03:45:27;4.10;99.90
53752;DHT22;41095;53.090;6.692;2023-02-28T03:48:02;4.00;99.90
53752;DHT22;41095;53.090;6.692;2023-02-28T03:50:37;4.00;99.90
53752;DHT22;41095;53.090;6.692;2023-02-28T03:55:37;3.90;99.90
53752;DHT22;41095;53.090;6.692;2023-02-28T04:00:49;3.80;99.90
53752;DHT22;41095;53.090;6.692;2023-02-28T04:03:15;3.80;99.90
53752;DHT22;41095;53.090;6.692;2023-02-28T04:05:54;3.80;99.90
53752;DHT22;41095;53.090;6.692;2023-02-28T04:08:21;3.70;99.90
53752;DHT22;41095;53.090;6.692;2023-02-28T04:10:54;3.70;99.90
53752;DHT22;41095;53.090;6.692;2023-02-28T04:13:21;4.30;99.90
53752;DHT22;41095;53.090;6.692;2023-02-28T04:15:47;3.70;99.90
53752;DHT22;41095;53.090;6.692;2023-02-28T04:18:12;3.80;99.90
53752;DHT22;41095;53.090;6.692;2023-02-28T04:20:38;3.80;99.90
53752;DHT22;41095;53.090;6.692;2023-02-28T04:23:04;3.90;99.90
53752;DHT22;41095;53.090;6.692;2023-02-28T04:25:29;4.00;99.90
53752;DHT22;41095;53.090;6.692;2023-02-28T04:27:55;4.00;99.90
53752;DHT22;41095;53.090;6.692;2023-02-28T04:30:21;4.00;99.90
53752;DHT22;41095;53.090;6.692;2023-02-28T04:32:46;4.00;99.90
53752;DHT22;41095;53.090;6.692;2023-02-28T04:35:12;4.00;99.90
53752;DHT22;41095;53.090;6.692;2023-02-28T04:37:38;3.90;99.90
53752;DHT22;41095;53.090;6.692;2023-02-28T04:40:04;3.90;99.90
53752;DHT22;41095;53.090;6.692;2023-02-28T04:42:30;4.00;99.90
53752;DHT22;41095;53.090;6.692;2023-02-28T04:45:02;4.00;99.90
53752;DHT22;41095;53.090;6.692;2023-02-28T04:47:28;3.90;99.90
53752;DHT22;41095;53.090;6.692;2023-02-28T04:49:54;3.90;99.90
53752;DHT22;41095;53.090;6.692;2023-02-28T04:52:19;3.90;99.90
53752;DHT22;41095;53.090;6.692;2023-02-28T04:54:45;3.80;99.90
53752;DHT22;41095;53.090;6.692;2023-02-28T04:57:11;3.80;99.90
53752;DHT22;41095;53.090;6.692;2023-02-28T04:59:37;4.10;99.90
53752;DHT22;41095;53.090;6.692;2023-02-28T05:02:02;4.10;99.90
53752;DHT22;41095;53.090;6.692;2023-02-28T05:04:33;4.60;99.90
53752;DHT22;41095;53.090;6.692;2023-02-28T05:07:00;3.80;99.90
53752;DHT22;41095;53.090;6.692;2023-02-28T05:09:26;3.80;99.90
53752;DHT22;41095;53.090;6.692;2023-02-28T05:11:53;4.00;99.90
53752;DHT22;41095;53.090;6.692;2023-02-28T05:14:19;3.80;99.90
53752;DHT22;41095;53.090;6.692;2023-02-28T05:16:45;3.80;99.90
53752;DHT22;41095;53.090;6.692;2023-02-28T05:19:11;4.00;99.90
53752;DHT22;41095;53.090;6.692;2023-02-28T05:21:41;3.80;99.90
53752;DHT22;41095;53.090;6.692;2023-02-28T05:24:13;3.80;99.90
53752;DHT22;41095;53.090;6.692;2023-02-28T05:26:42;3.80;99.90
53752;DHT22;41095;53.090;6.692;2023-02-28T05:29:08;3.70;99.90
53752;DHT22;41095;53.090;6.692;2023-02-28T05:31:35;3.70;99.90
53752;DHT22;41095;53.090;6.692;2023-02-28T05:34:00;3.80;99.90
53752;DHT22;41095;53.090;6.692;2023-02-28T05:36:26;3.70;99.90
53752;DHT22;41095;53.090;6.692;2023-02-28T05:38:52;3.70;99.90
53752;DHT22;41095;53.090;6.692;2023-02-28T05:41:19;3.90;99.90
53752;DHT22;41095;53.090;6.692;2023-02-28T05:43:46;3.70;99.90
53752;DHT22;41095;53.090;6.692;2023-02-28T05:46:12;3.70;99.90
53752;DHT22;41095;53.090;6.692;2023-02-28T05:48:41;4.10;99.90
53752;DHT22;41095;53.090;6.692;2023-02-28T05:51:07;3.70;99.90
53752;DHT22;41095;53.090;6.692;2023-02-28T05:53:34;3.60;99.90
53752;DHT22;41095;53.090;6.692;2023-02-28T05:56:00;3.60;99.90
53752;DHT22;41095;53.090;6.692;2023-02-28T05:58:26;3.60;99.90
53752;DHT22;41095;53.090;6.692;2023-02-28T06:00:56;3.60;99.90
53752;DHT22;41095;53.090;6.692;2023-02-28T06:03:22;3.70;99.90
53752;DHT22;41095;53.090;6.692;2023-02-28T06:05:48;3.70;99.90
53752;DHT22;41095;53.090;6.692;2023-02-28T06:08:13;3.80;99.90
53752;DHT22;41095;53.090;6.692;2023-02-28T06:10:39;3.90;99.90
53752;DHT22;41095;53.090;6.692;2023-02-28T06:13:05;3.70;99.90
53752;DHT22;41095;53.090;6.692;2023-02-28T06:15:31;3.70;99.90
53752;DHT22;41095;53.090;6.692;2023-02-28T06:17:57;3.70;99.90
53752;DHT22;41095;53.090;6.692;2023-02-28T06:20:25;3.90;99.90
53752;DHT22;41095;53.090;6.692;2023-02-28T06:22:57;3.60;99.90
53752;DHT22;41095;53.090;6.692;2023-02-28T06:25:27;3.60;99.90
53752;DHT22;41095;53.090;6.692;2023-02-28T06:27:53;3.60;99.90
53752;DHT22;41095;53.090;6.692;2023-02-28T06:30:20;3.60;99.90
53752;DHT22;41095;53.090;6.692;2023-02-28T06:32:50;3.70;99.90
53752;DHT22;41095;53.090;6.692;2023-02-28T06:35:17;3.60;99.90
53752;DHT22;41095;53.090;6.692;2023-02-28T06:37:43;3.60;99.90
53752;DHT22;41095;53.090;6.692;2023-02-28T06:40:10;3.70;99.90
53752;DHT22;41095;53.090;6.692;2023-02-28T06:42:36;3.60;99.90
53752;DHT22;41095;53.090;6.692;2023-02-28T06:45:01;3.60;99.90
53752;DHT22;41095;53.090;6.692;2023-02-28T06:47:31;3.70;99.90
53752;DHT22;41095;53.090;6.692;2023-02-28T06:49:57;3.90;99.90
53752;DHT22;41095;53.090;6.692;2023-02-28T06:52:22;3.70;99.90
53752;DHT22;41095;53.090;6.692;2023-02-28T06:54:48;3.80;99.90
53752;DHT22;41095;53.090;6.692;2023-02-28T06:57:27;3.80;99.90
53752;DHT22;41095;53.090;6.692;2023-02-28T06:59:53;3.80;99.90
53752;DHT22;41095;53.090;6.692;2023-02-28T07:02:18;3.80;99.90
53752;DHT22;41095;53.090;6.692;2023-02-28T07:04:44;3.80;99.90
53752;DHT22;41095;53.090;6.692;2023-02-28T07:07:10;4.20;99.90
53752;DHT22;41095;53.090;6.692;2023-02-28T07:09:36;3.90;99.90
53752;DHT22;41095;53.090;6.692;2023-02-28T07:12:01;3.90;99.90
53752;DHT22;41095;53.090;6.692;2023-02-28T07:14:27;3.90;99.90
53752;DHT22;41095;53.090;6.692;2023-02-28T07:16:52;4.00;99.90
53752;DHT22;41095;53.090;6.692;2023-02-28T07:19:18;4.10;99.90
53752;DHT22;41095;53.090;6.692;2023-02-28T07:21:44;4.20;99.90
53752;DHT22;41095;53.090;6.692;2023-02-28T07:24:10;4.10;99.90
53752;DHT22;41095;53.090;6.692;2023-02-28T07:26:36;4.00;99.90
53752;DHT22;41095;53.090;6.692;2023-02-28T07:29:03;4.10;99.90
53752;DHT22;41095;53.090;6.692;2023-02-28T07:31:28;4.10;99.90
53752;DHT22;41095;53.090;6.692;2023-02-28T07:33:54;4.10;99.90
53752;DHT22;41095;53.090;6.692;2023-02-28T07:36:21;4.20;99.90
53752;DHT22;41095;53.090;6.692;2023-02-28T07:38:48;4.10;99.90
53752;DHT22;41095;53.090;6.692;2023-02-28T07:41:20;4.20;99.90
53752;DHT22;41095;53.090;6.692;2023-02-28T07:43:47;4.20;99.90
53752;DHT22;41095;53.090;6.692;2023-02-28T07:46:14;4.30;99.90
53752;DHT22;41095;53.090;6.692;2023-02-28T07:48:41;4.20;99.90
53752;DHT22;41095;53.090;6.692;2023-02-28T07:51:06;4.10;99.90
53752;DHT22;41095;53.090;6.692;2023-02-28T07:53:32;4.10;99.90
53752;DHT22;41095;53.090;6.692;2023-02-28T07:56:00;4.10;99.90
53752;DHT22;41095;53.090;6.692;2023-02-28T07:58:27;4.10;99.90
53752;DHT22;41095;53.090;6.692;2023-02-28T08:00:53;4.20;99.90
53752;DHT22;41095;53.090;6.692;2023-02-28T08:03:20;4.10;99.90
53752;DHT22;41095;53.090;6.692;2023-02-28T08:05:49;4.10;99.90
53752;DHT22;41095;53.090;6.692;2023-02-28T08:08:16;4.20;99.90
53752;DHT22;41095;53.090;6.692;2023-02-28T08:10:43;4.30;99.90
53752;DHT22;41095;53.090;6.692;2023-02-28T08:13:09;4.50;99.90
53752;DHT22;41095;53.090;6.692;2023-02-28T08:15:34;4.70;99.90
53752;DHT22;41095;53.090;6.692;2023-02-28T08:18:00;4.80;99.90
53752;DHT22;41095;53.090;6.692;2023-02-28T08:20:26;4.90;99.90
53752;DHT22;41095;53.090;6.692;2023-02-28T08:22:52;4.80;99.90
53752;DHT22;41095;53.090;6.692;2023-02-28T08:25:18;4.70;99.90
53752;DHT22;41095;53.090;6.692;2023-02-28T08:27:44;4.60;99.90
53752;DHT22;41095;53.090;6.692;2023-02-28T08:30:11;4.60;99.90
53752;DHT22;41095;53.090;6.692;2023-02-28T08:32:38;4.60;99.90
53752;DHT22;41095;53.090;6.692;2023-02-28T08:35:04;4.60;99.90
53752;DHT22;41095;53.090;6.692;2023-02-28T08:37:30;4.60;99.90
53752;DHT22;41095;53.090;6.692;2023-02-28T08:39:55;4.70;99.90
53752;DHT22;41095;53.090;6.692;2023-02-28T08:42:21;4.80;99.90
53752;DHT22;41095;53.090;6.692;2023-02-28T08:44:47;5.00;99.90
53752;DHT22;41095;53.090;6.692;2023-02-28T08:47:13;5.20;99.90
53752;DHT22;41095;53.090;6.692;2023-02-28T08:49:38;5.30;99.90
53752;DHT22;41095;53.090;6.692;2023-02-28T08:52:04;5.40;99.90
53752;DHT22;41095;53.090;6.692;2023-02-28T08:54:30;5.50;99.90
53752;DHT22;41095;53.090;6.692;2023-02-28T08:56:57;5.70;99.90
53752;DHT22;41095;53.090;6.692;2023-02-28T08:59:23;5.80;99.90
53752;DHT22;41095;53.090;6.692;2023-02-28T09:01:48;6.00;99.90
53752;DHT22;41095;53.090;6.692;2023-02-28T09:04:14;6.10;99.90
53752;DHT22;41095;53.090;6.692;2023-02-28T09:06:40;6.20;99.90
53752;DHT22;41095;53.090;6.692;2023-02-28T09:09:06;6.30;99.90
53752;DHT22;41095;53.090;6.692;2023-02-28T09:11:33;6.30;99.90
53752;DHT22;41095;53.090;6.692;2023-02-28T09:14:00;6.20;99.90
53752;DHT22;41095;53.090;6.692;2023-02-28T09:16:29;6.10;99.90
53752;DHT22;41095;53.090;6.692;2023-02-28T09:18:56;6.00;99.90
53752;DHT22;41095;53.090;6.692;2023-02-28T09:21:22;6.00;99.90
53752;DHT22;41095;53.090;6.692;2023-02-28T09:23:49;6.10;99.90
53752;DHT22;41095;53.090;6.692;2023-02-28T09:26:24;6.10;99.90
53752;DHT22;41095;53.090;6.692;2023-02-28T09:28:51;6.20;99.90
53752;DHT22;41095;53.090;6.692;2023-02-28T09:31:20;6.20;99.90
53752;DHT22;41095;53.090;6.692;2023-02-28T09:33:50;6.30;99.90
53752;DHT22;41095;53.090;6.692;2023-02-28T09:36:16;6.30;99.90
53752;DHT22;41095;53.090;6.692;2023-02-28T09:38:42;6.40;99.90
53752;DHT22;41095;53.090;6.692;2023-02-28T09:41:20;6.50;99.90
53752;DHT22;41095;53.090;6.692;2023-02-28T09:43:53;6.60;99.90
53752;DHT22;41095;53.090;6.692;2023-02-28T09:46:38;6.70;99.90
53752;DHT22;41095;53.090;6.692;2023-02-28T09:49:15;6.80;99.90
53752;DHT22;41095;53.090;6.692;2023-02-28T09:52:02;6.80;99.90
53752;DHT22;41095;53.090;6.692;2023-02-28T09:54:31;6.90;99.90
53752;DHT22;41095;53.090;6.692;2023-02-28T09:57:13;7.10;99.90
53752;DHT22;41095;53.090;6.692;2023-02-28T10:05:24;7.90;99.90
53752;DHT22;41095;53.090;6.692;2023-02-28T10:08:11;8.90;99.90
53752;DHT22;41095;53.090;6.692;2023-02-28T10:11:16;10.10;99.90
53752;DHT22;41095;53.090;6.692;2023-02-28T10:16:22;12.00;99.90
53752;DHT22;41095;53.090;6.692;2023-02-28T10:18:54;13.60;99.90
53752;DHT22;41095;53.090;6.692;2023-02-28T10:21:38;14.40;99.90
53752;DHT22;41095;53.090;6.692;2023-02-28T10:26:47;16.20;99.90
53752;DHT22;41095;53.090;6.692;2023-02-28T10:29:13;16.00;99.10
53752;DHT22;41095;53.090;6.692;2023-02-28T10:31:39;16.10;99.90
53752;DHT22;41095;53.090;6.692;2023-02-28T10:34:06;16.60;99.90
53752;DHT22;41095;53.090;6.692;2023-02-28T10:36:32;17.20;99.40
53752;DHT22;41095;53.090;6.692;2023-02-28T10:38:57;17.20;98.20
53752;DHT22;41095;53.090;6.692;2023-02-28T10:44:20;18.30;95.70
53752;DHT22;41095;53.090;6.692;2023-02-28T10:46:46;18.00;79.50
53752;DHT22;41095;53.090;6.692;2023-02-28T10:49:22;18.20;94.20
53752;DHT22;41095;53.090;6.692;2023-02-28T10:51:51;17.80;92.30
53752;DHT22;41095;53.090;6.692;2023-02-28T10:54:29;17.70;93.60
53752;DHT22;41095;53.090;6.692;2023-02-28T10:59:36;15.30;92.60
53752;DHT22;41095;53.090;6.692;2023-02-28T11:02:01;13.50;95.30
53752;DHT22;41095;53.090;6.692;2023-02-28T11:09:38;10.70;95.60
53752;DHT22;41095;53.090;6.692;2023-02-28T11:12:26;9.90;99.70
53752;DHT22;41095;53.090;6.692;2023-02-28T11:14:56;9.70;99.90
53752;DHT22;41095;53.090;6.692;2023-02-28T11:17:28;9.40;99.90
53752;DHT22;41095;53.090;6.692;2023-02-28T11:20:05;9.10;99.90
53752;DHT22;41095;53.090;6.692;2023-02-28T11:22:37;8.80;99.60
53752;DHT22;41095;53.090;6.692;2023-02-28T11:25:24;8.50;99.90
53752;DHT22;41095;53.090;6.692;2023-02-28T11:27:56;8.20;99.90
53752;DHT22;41095;53.090;6.692;2023-02-28T11:30:31;7.90;99.90
53752;DHT22;41095;53.090;6.692;2023-02-28T11:32:59;7.70;99.90
53752;DHT22;41095;53.090;6.692;2023-02-28T11:37:55;7.50;99.90
53752;DHT22;41095;53.090;6.692;2023-02-28T11:40:30;7.40;99.90
53752;DHT22;41095;53.090;6.692;2023-02-28T11:51:35;7.10;99.90
53752;DHT22;41095;53.090;6.692;2023-02-28T11:56:44;7.00;99.90
53752;DHT22;41095;53.090;6.692;2023-02-28T11:59:22;7.20;99.90
53752;DHT22;41095;53.090;6.692;2023-02-28T12:06:57;6.80;99.90
53752;DHT22;41095;53.090;6.692;2023-02-28T12:12:07;6.70;99.90
53752;DHT22;41095;53.090;6.692;2023-02-28T12:20:25;6.70;99.90
53752;DHT22;41095;53.090;6.692;2023-02-28T12:28:10;7.10;99.90
53752;DHT22;41095;53.090;6.692;2023-02-28T12:30:41;7.40;99.90
53752;DHT22;41095;53.090;6.692;2023-02-28T12:33:17;7.60;99.90
53752;DHT22;41095;53.090;6.692;2023-02-28T12:35:52;7.70;99.90
53752;DHT22;41095;53.090;6.692;2023-02-28T12:38:38;7.80;99.90
53752;DHT22;41095;53.090;6.692;2023-02-28T12:41:53;8.00;99.90
53752;DHT22;41095;53.090;6.692;2023-02-28T12:44:17;8.20;99.90
53752;DHT22;41095;53.090;6.692;2023-02-28T12:46:47;8.00;99.90
53752;DHT22;41095;53.090;6.692;2023-02-28T12:52:05;7.80;99.90
53752;DHT22;41095;53.090;6.692;2023-02-28T12:54:48;7.90;99.90
53752;DHT22;41095;53.090;6.692;2023-02-28T12:57:39;7.80;99.90
53752;DHT22;41095;53.090;6.692;2023-02-28T13:00:12;7.70;99.90
53752;DHT22;41095;53.090;6.692;2023-02-28T13:11:32;7.90;98.40
53752;DHT22;41095;53.090;6.692;2023-02-28T13:17:21;8.00;99.40
53752;DHT22;41095;53.090;6.692;2023-02-28T13:24:51;8.00;97.40
53752;DHT22;41095;53.090;6.692;2023-02-28T13:29:51;8.00;99.90
53752;DHT22;41095;53.090;6.692;2023-02-28T13:32:30;7.80;99.00
53752;DHT22;41095;53.090;6.692;2023-02-28T13:39:54;7.50;99.70
53752;DHT22;41095;53.090;6.692;2023-02-28T13:48:42;7.40;97.60
53752;DHT22;41095;53.090;6.692;2023-02-28T13:51:49;7.40;99.90
53752;DHT22;41095;53.090;6.692;2023-02-28T14:08:34;8.60;99.20
53752;DHT22;41095;53.090;6.692;2023-02-28T14:11:06;8.80;99.60
53752;DHT22;41095;53.090;6.692;2023-02-28T14:13:42;8.70;98.20
53752;DHT22;41095;53.090;6.692;2023-02-28T14:16:20;8.70;97.60
53752;DHT22;41095;53.090;6.692;2023-02-28T14:18:56;8.50;97.40
53752;DHT22;41095;53.090;6.692;2023-02-28T14:21:29;8.40;98.80
53752;DHT22;41095;53.090;6.692;2023-02-28T14:27:17;8.10;98.30
53752;DHT22;41095;53.090;6.692;2023-02-28T14:32:33;7.90;97.90
53752;DHT22;41095;53.090;6.692;2023-02-28T14:37:41;7.50;98.10
53752;DHT22;41095;53.090;6.692;2023-02-28T14:40:27;7.50;99.50
53752;DHT22;41095;53.090;6.692;2023-02-28T14:43:03;7.50;99.90
53752;DHT22;41095;53.090;6.692;2023-02-28T14:45:31;7.70;99.90
53752;DHT22;41095;53.090;6.692;2023-02-28T14:47:58;7.90;99.90
53752;DHT22;41095;53.090;6.692;2023-02-28T14:50:37;8.00;99.80
53752;DHT22;41095;53.090;6.692;2023-02-28T14:53:03;8.00;98.20
53752;DHT22;41095;53.090;6.692;2023-02-28T14:55:34;8.00;99.50
53752;DHT22;41095;53.090;6.692;2023-02-28T14:58:05;8.10;99.90
53752;DHT22;41095;53.090;6.692;2023-02-28T15:00:37;8.20;99.70
53752;DHT22;41095;53.090;6.692;2023-02-28T15:03:20;8.10;97.80
53752;DHT22;41095;53.090;6.692;2023-02-28T15:05:56;8.20;99.70
53752;DHT22;41095;53.090;6.692;2023-02-28T15:08:23;8.20;99.60
53752;DHT22;41095;53.090;6.692;2023-02-28T15:13:30;8.10;98.90
53752;DHT22;41095;53.090;6.692;2023-02-28T15:16:44;8.10;98.70
53752;DHT22;41095;53.090;6.692;2023-02-28T15:21:32;7.90;96.10
53752;DHT22;41095;53.090;6.692;2023-02-28T15:24:06;7.90;97.60
53752;DHT22;41095;53.090;6.692;2023-02-28T15:26:46;7.90;97.50
53752;DHT22;41095;53.090;6.692;2023-02-28T15:29:21;8.00;97.70
53752;DHT22;41095;53.090;6.692;2023-02-28T15:31:50;8.00;98.10
53752;DHT22;41095;53.090;6.692;2023-02-28T15:34:39;8.00;99.20
53752;DHT22;41095;53.090;6.692;2023-02-28T15:37:25;8.00;99.10
53752;DHT22;41095;53.090;6.692;2023-02-28T15:39:53;7.90;98.20
53752;DHT22;41095;53.090;6.692;2023-02-28T15:42:21;7.70;98.70
53752;DHT22;41095;53.090;6.692;2023-02-28T15:44:47;7.60;98.50
53752;DHT22;41095;53.090;6.692;2023-02-28T15:47:22;7.50;99.30
53752;DHT22;41095;53.090;6.692;2023-02-28T15:49:58;7.40;98.30
53752;DHT22;41095;53.090;6.692;2023-02-28T15:52:28;7.30;99.10
53752;DHT22;41095;53.090;6.692;2023-02-28T15:54:57;7.20;99.90
53752;DHT22;41095;53.090;6.692;2023-02-28T15:57:28;7.10;99.90
53752;DHT22;41095;53.090;6.692;2023-02-28T16:00:00;7.00;99.90
53752;DHT22;41095;53.090;6.692;2023-02-28T16:02:35;7.00;99.90
53752;DHT22;41095;53.090;6.692;2023-02-28T16:07:37;6.90;99.90
53752;DHT22;41095;53.090;6.692;2023-02-28T16:10:05;6.90;99.90
53752;DHT22;41095;53.090;6.692;2023-02-28T16:12:33;6.90;99.90
53752;DHT22;41095;53.090;6.692;2023-02-28T16:15:03;6.90;99.90
53752;DHT22;41095;53.090;6.692;2023-02-28T16:17:38;6.70;99.90
53752;DHT22;41095;53.090;6.692;2023-02-28T16:20:18;6.70;99.90
53752;DHT22;41095;53.090;6.692;2023-02-28T16:22:44;6.70;99.90
53752;DHT22;41095;53.090;6.692;2023-02-28T16:25:16;6.60;99.90
53752;DHT22;41095;53.090;6.692;2023-02-28T16:27:43;6.50;99.90
53752;DHT22;41095;53.090;6.692;2023-02-28T16:30:17;6.50;99.90
53752;DHT22;41095;53.090;6.692;2023-02-28T16:32:44;6.50;99.90
53752;DHT22;41095;53.090;6.692;2023-02-28T16:35:10;6.40;99.90
53752;DHT22;41095;53.090;6.692;2023-02-28T16:37:36;6.40;99.90
53752;DHT22;41095;53.090;6.692;2023-02-28T16:40:03;6.30;99.90
53752;DHT22;41095;53.090;6.692;2023-02-28T16:42:30;6.30;99.90
53752;DHT22;41095;53.090;6.692;2023-02-28T16:44:56;6.20;99.90
53752;DHT22;41095;53.090;6.692;2023-02-28T16:47:23;6.10;99.90
53752;DHT22;41095;53.090;6.692;2023-02-28T16:49:49;6.10;99.90
53752;DHT22;41095;53.090;6.692;2023-02-28T16:52:15;6.00;99.90
53752;DHT22;41095;53.090;6.692;2023-02-28T16:54:41;6.00;99.90
53752;DHT22;41095;53.090;6.692;2023-02-28T16:57:18;6.00;99.90
53752;DHT22;41095;53.090;6.692;2023-02-28T16:59:46;6.10;99.90
53752;DHT22;41095;53.090;6.692;2023-02-28T17:02:14;6.10;99.90
53752;DHT22;41095;53.090;6.692;2023-02-28T17:04:40;6.10;99.90
53752;DHT22;41095;53.090;6.692;2023-02-28T17:07:11;6.20;99.90
53752;DHT22;41095;53.090;6.692;2023-02-28T17:09:38;6.10;99.90
53752;DHT22;41095;53.090;6.692;2023-02-28T17:12:04;6.10;99.90
53752;DHT22;41095;53.090;6.692;2023-02-28T17:14:29;6.10;99.90
53752;DHT22;41095;53.090;6.692;2023-02-28T17:16:55;6.10;99.90
53752;DHT22;41095;53.090;6.692;2023-02-28T17:19:21;6.10;99.90
53752;DHT22;41095;53.090;6.692;2023-02-28T17:21:47;6.00;99.90
53752;DHT22;41095;53.090;6.692;2023-02-28T17:24:12;6.00;99.90
53752;DHT22;41095;53.090;6.692;2023-02-28T17:26:40;6.00;99.90
53752;DHT22;41095;53.090;6.692;2023-02-28T17:29:18;5.90;99.90
53752;DHT22;41095;53.090;6.692;2023-02-28T17:31:44;5.90;99.90
53752;DHT22;41095;53.090;6.692;2023-02-28T17:34:10;5.90;99.90
53752;DHT22;41095;53.090;6.692;2023-02-28T17:36:36;5.80;99.90
53752;DHT22;41095;53.090;6.692;2023-02-28T17:39:04;5.80;99.90
53752;DHT22;41095;53.090;6.692;2023-02-28T17:41:34;5.80;99.90
53752;DHT22;41095;53.090;6.692;2023-02-28T17:44:00;5.80;99.90
53752;DHT22;41095;53.090;6.692;2023-02-28T17:46:25;5.70;99.90
53752;DHT22;41095;53.090;6.692;2023-02-28T17:48:53;5.70;99.90
53752;DHT22;41095;53.090;6.692;2023-02-28T17:51:23;5.60;99.90
53752;DHT22;41095;53.090;6.692;2023-02-28T17:53:50;5.60;99.90
53752;DHT22;41095;53.090;6.692;2023-02-28T17:56:19;5.50;99.90
53752;DHT22;41095;53.090;6.692;2023-02-28T17:58:45;5.40;99.90
53752;DHT22;41095;53.090;6.692;2023-02-28T18:01:11;5.40;99.90
53752;DHT22;41095;53.090;6.692;2023-02-28T18:03:38;5.30;99.90
53752;DHT22;41095;53.090;6.692;2023-02-28T18:06:04;5.40;99.90
53752;DHT22;41095;53.090;6.692;2023-02-28T18:08:30;5.30;99.90
53752;DHT22;41095;53.090;6.692;2023-02-28T18:10:59;5.30;99.90
53752;DHT22;41095;53.090;6.692;2023-02-28T18:13:24;5.30;99.90
53752;DHT22;41095;53.090;6.692;2023-02-28T18:15:50;5.20;99.90
53752;DHT22;41095;53.090;6.692;2023-02-28T18:18:16;5.30;99.90
53752;DHT22;41095;53.090;6.692;2023-02-28T18:20:42;5.30;99.90
53752;DHT22;41095;53.090;6.692;2023-02-28T18:23:08;5.20;99.90
53752;DHT22;41095;53.090;6.692;2023-02-28T18:25:33;5.20;99.90
53752;DHT22;41095;53.090;6.692;2023-02-28T18:27:59;5.20;99.90
53752;DHT22;41095;53.090;6.692;2023-02-28T18:30:27;5.10;99.90
53752;DHT22;41095;53.090;6.692;2023-02-28T18:32:56;5.00;99.90
53752;DHT22;41095;53.090;6.692;2023-02-28T18:35:23;5.00;99.90
53752;DHT22;41095;53.090;6.692;2023-02-28T18:40:35;4.80;99.90
53752;DHT22;41095;53.090;6.692;2023-02-28T18:43:02;4.80;99.90
53752;DHT22;41095;53.090;6.692;2023-02-28T18:45:28;4.70;99.90
53752;DHT22;41095;53.090;6.692;2023-02-28T18:47:53;4.70;99.90
53752;DHT22;41095;53.090;6.692;2023-02-28T18:50:20;4.70;99.90